createdAt,value
2022-12-31T00:04:14.576Z,99668.88
2022-12-31T00:09:35.269Z,99656.97
2022-12-31T00:14:56.002Z,99651.06
2022-12-31T00:20:17.500Z,99661.38
2022-12-31T00:25:38.556Z,99666.59
2022-12-31T00:31:07.265Z,99670.97
2022-12-31T00:36:31.633Z,99696.47
2022-12-31T00:41:52.599Z,99704.06
2022-12-31T00:47:13.089Z,99711.00
2022-12-31T00:52:33.709Z,99703.34
2022-12-31T00:57:54.470Z,99711.13
2022-12-31T01:03:15.260Z,99706.94
2022-12-31T01:08:35.991Z,99716.25
2022-12-31T01:14:03.788Z,99724.06
2022-12-31T01:24:48.292Z,99745.28
2022-12-31T01:30:09.270Z,99734.22
2022-12-31T01:35:29.663Z,99727.38
2022-12-31T01:40:50.299Z,99750.22
2022-12-31T01:46:14.208Z,99752.91
2022-12-31T01:51:35.338Z,99768.09
2022-12-31T01:56:56.773Z,99738.38
2022-12-31T02:02:17.699Z,99767.16
2022-12-31T02:07:39.584Z,99747.53
2022-12-31T02:13:00.494Z,99773.75
2022-12-31T02:18:41.533Z,99762.75
2022-12-31T02:24:28.489Z,99771.41
2022-12-31T02:30:04.205Z,99787.56
2022-12-31T02:35:51.287Z,99786.66
2022-12-31T02:41:33.922Z,99795.13
2022-12-31T02:47:30.867Z,99819.72
2022-12-31T02:53:12.784Z,99807.00
2022-12-31T02:59:12.241Z,99808.81
2022-12-31T03:04:33.988Z,99814.84
2022-12-31T03:09:56.040Z,99822.50
2022-12-31T03:15:30.230Z,99826.00
2022-12-31T03:21:09.985Z,99843.94
2022-12-31T03:26:30.336Z,99852.59
2022-12-31T03:31:51.767Z,99856.06
2022-12-31T03:37:12.940Z,99859.63
2022-12-31T03:42:34.174Z,99855.50
2022-12-31T03:47:55.080Z,99860.91
2022-12-31T03:53:16.931Z,99858.50
2022-12-31T03:58:37.708Z,99843.19
2022-12-31T04:03:58.327Z,99840.72
2022-12-31T04:09:18.942Z,99843.25
2022-12-31T04:14:39.787Z,99854.00
2022-12-31T04:20:00.563Z,99834.34
2022-12-31T04:25:21.382Z,99838.34
2022-12-31T04:30:43.163Z,99838.16
2022-12-31T04:36:06.059Z,99850.94
2022-12-31T04:41:27.164Z,99856.91
2022-12-31T04:46:47.889Z,99881.47
2022-12-31T04:52:08.542Z,99855.94
2022-12-31T04:57:29.390Z,99843.94
2022-12-31T05:02:49.927Z,99853.25
2022-12-31T05:13:34.704Z,99849.75
2022-12-31T05:18:55.398Z,99855.81
2022-12-31T05:24:15.804Z,99852.28
2022-12-31T05:29:36.475Z,99868.41
2022-12-31T05:34:59.568Z,99877.97
2022-12-31T05:40:21.317Z,99894.22
2022-12-31T05:45:41.765Z,99890.81
2022-12-31T05:51:02.080Z,99907.81
2022-12-31T06:04:18.928Z,99903.75
2022-12-31T06:09:39.887Z,99894.22
2022-12-31T06:15:00.571Z,99899.84
2022-12-31T06:20:24.107Z,99902.47
2022-12-31T06:25:44.838Z,99897.38
2022-12-31T06:31:08.404Z,99909.13
2022-12-31T06:36:28.978Z,99906.59
2022-12-31T06:41:49.708Z,99882.63
2022-12-31T06:47:10.536Z,99870.84
2022-12-31T06:52:31.411Z,99886.16
2022-12-31T06:57:52.968Z,99890.19
2022-12-31T07:03:27.419Z,99877.34
2022-12-31T07:08:59.761Z,99891.84
2022-12-31T07:14:38.722Z,99883.38
2022-12-31T07:20:19.637Z,99884.13
2022-12-31T07:25:51.281Z,99898.63
2022-12-31T07:31:18.301Z,99919.88
2022-12-31T07:37:02.731Z,99933.59
2022-12-31T07:42:32.678Z,99938.69
2022-12-31T07:47:57.471Z,99919.94
2022-12-31T07:53:22.930Z,99913.97
2022-12-31T07:59:02.531Z,99935.38
2022-12-31T08:04:38.453Z,99942.31
2022-12-31T08:09:59.680Z,99971.44
2022-12-31T08:15:24.140Z,99950.13
2022-12-31T08:21:35.225Z,99956.13
2022-12-31T08:27:20.037Z,99936.63
2022-12-31T08:33:02.711Z,99943.50
2022-12-31T08:38:37.717Z,99927.25
2022-12-31T08:44:29.664Z,99934.84
2022-12-31T08:49:50.709Z,99938.97
2022-12-31T08:55:16.455Z,99949.06
2022-12-31T09:00:38.756Z,99959.06
2022-12-31T09:06:14.679Z,99955.59
2022-12-31T09:12:03.152Z,99943.63
2022-12-31T09:17:47.057Z,99942.53
2022-12-31T09:23:08.166Z,99952.66
2022-12-31T09:29:10.112Z,99970.53
2022-12-31T09:34:37.294Z,99965.44
2022-12-31T09:40:05.499Z,99949.41
2022-12-31T09:45:41.230Z,99952.00
2022-12-31T09:51:27.873Z,99958.75
2022-12-31T09:56:59.374Z,99952.88
2022-12-31T10:02:52.465Z,99960.56
2022-12-31T10:08:37.108Z,99942.47
2022-12-31T10:14:19.883Z,99944.31
2022-12-31T10:20:16.106Z,99934.50
2022-12-31T10:25:50.248Z,99943.91
2022-12-31T10:31:58.060Z,99948.25
2022-12-31T10:37:23.623Z,99965.03
2022-12-31T10:43:14.125Z,99924.13
2022-12-31T10:49:03.236Z,99931.09
2022-12-31T10:54:29.622Z,99919.31
2022-12-31T11:00:01.457Z,99946.56
2022-12-31T11:06:07.124Z,99934.69
2022-12-31T11:11:49.448Z,99926.09
2022-12-31T11:17:29.533Z,99910.59
2022-12-31T11:23:21.882Z,99893.44
2022-12-31T11:29:16.077Z,99873.81
2022-12-31T11:35:03.549Z,99868.50
2022-12-31T11:40:39.671Z,99841.91
2022-12-31T11:46:23.291Z,99846.94
2022-12-31T11:52:21.752Z,99822.06
2022-12-31T11:57:48.695Z,99834.59
2022-12-31T12:03:11.786Z,99840.59
2022-12-31T12:08:34.012Z,99827.94
2022-12-31T12:13:54.645Z,99825.84
2022-12-31T12:19:18.705Z,99811.06
2022-12-31T12:24:39.312Z,99803.84
2022-12-31T12:30:09.790Z,99804.66
2022-12-31T12:35:35.781Z,99806.28
2022-12-31T12:41:02.383Z,99798.41
2022-12-31T12:46:33.489Z,99797.19
2022-12-31T12:52:15.339Z,99791.31
2022-12-31T12:57:48.729Z,99792.63
2022-12-31T13:03:30.817Z,99796.72
2022-12-31T13:09:13.181Z,99786.63
2022-12-31T13:14:40.744Z,99782.72
2022-12-31T13:20:19.715Z,99791.50
2022-12-31T13:26:01.503Z,99784.72
2022-12-31T13:31:30.545Z,99781.44
2022-12-31T13:36:52.709Z,99775.00
2022-12-31T13:42:21.152Z,99779.16
2022-12-31T13:47:52.499Z,99786.50
2022-12-31T13:53:20.160Z,99800.72
2022-12-31T13:58:53.074Z,99793.84
2022-12-31T14:04:31.472Z,99801.22
2022-12-31T14:09:52.617Z,99802.91
2022-12-31T14:15:34.161Z,99801.97
2022-12-31T14:21:06.564Z,99793.28
2022-12-31T14:26:32.653Z,99806.75
2022-12-31T14:32:02.307Z,99795.44
2022-12-31T14:38:00.829Z,99803.69
2022-12-31T14:43:40.289Z,99818.84
2022-12-31T14:49:16.616Z,99834.88
2022-12-31T14:54:38.050Z,99839.75
2022-12-31T15:00:00.637Z,99854.16
2022-12-31T15:05:24.382Z,99860.44
2022-12-31T15:11:23.959Z,99886.91
2022-12-31T15:17:02.987Z,99889.53
2022-12-31T15:22:36.084Z,99896.84
2022-12-31T15:28:00.609Z,99906.13
2022-12-31T15:33:52.067Z,99915.97
2022-12-31T15:39:12.544Z,99935.63
2022-12-31T15:44:50.719Z,99933.06
2022-12-31T15:50:24.020Z,99926.44
2022-12-31T15:55:49.652Z,99944.16
2022-12-31T16:01:22.926Z,99959.38
2022-12-31T16:06:48.944Z,99977.09
2022-12-31T16:12:19.461Z,99984.56
2022-12-31T16:17:40.138Z,99987.00
2022-12-31T16:23:03.685Z,99988.75
2022-12-31T16:28:33.035Z,100003.41
2022-12-31T16:47:38.188Z,100005.16
2022-12-31T16:53:05.082Z,100010.34
2022-12-31T16:58:39.613Z,100020.59
2022-12-31T17:04:04.651Z,100030.03
2022-12-31T17:15:02.063Z,100032.84
2022-12-31T17:20:27.327Z,100030.47
2022-12-31T17:25:47.779Z,100034.78
2022-12-31T17:31:35.045Z,100030.69
2022-12-31T17:37:17.852Z,100029.13
2022-12-31T17:42:39.778Z,100016.47
2022-12-31T17:48:00.418Z,100036.94
2022-12-31T17:53:21.720Z,100025.00
2022-12-31T17:58:45.585Z,100025.25
2022-12-31T18:04:14.648Z,100018.59
2022-12-31T18:09:35.173Z,100029.78
2022-12-31T18:14:55.452Z,100035.63
2022-12-31T18:20:16.890Z,100040.69
2022-12-31T18:30:58.274Z,100049.34
2022-12-31T18:36:20.574Z,100056.97
2022-12-31T18:41:49.004Z,100041.66
2022-12-31T18:47:15.102Z,100036.75
2022-12-31T18:52:35.677Z,100041.06
2022-12-31T18:57:56.373Z,100044.28
2022-12-31T19:03:20.137Z,100030.53
2022-12-31T19:08:40.865Z,100025.25
2022-12-31T19:14:02.209Z,100020.75
2022-12-31T19:19:22.921Z,100034.31
2022-12-31T19:24:43.673Z,100026.94
2022-12-31T19:30:04.732Z,100021.22
2022-12-31T19:35:26.323Z,100008.66
2022-12-31T19:40:47.660Z,100010.59
2022-12-31T19:46:12.588Z,99998.94
2022-12-31T19:51:32.886Z,99980.06
2022-12-31T19:56:53.613Z,99990.09
2022-12-31T20:02:14.385Z,100001.91
2022-12-31T20:07:35.765Z,99994.28
2022-12-31T20:12:56.295Z,99997.53
2022-12-31T20:18:21.117Z,99976.91
2022-12-31T20:23:41.936Z,99968.28
2022-12-31T20:29:02.611Z,99980.97
2022-12-31T20:34:23.311Z,99948.66
2022-12-31T20:39:44.002Z,99963.19
2022-12-31T20:45:05.513Z,99955.50
2022-12-31T20:50:26.113Z,99956.50
2022-12-31T20:55:46.820Z,99937.00
2022-12-31T21:01:09.643Z,99938.66
2022-12-31T21:06:31.492Z,99932.81
2022-12-31T21:12:10.683Z,99937.88
2022-12-31T21:17:31.019Z,99936.91
2022-12-31T21:22:51.751Z,99951.28
2022-12-31T21:28:12.837Z,99956.28
2022-12-31T21:33:33.919Z,99937.53
2022-12-31T21:38:54.151Z,99937.72
2022-12-31T21:44:14.951Z,99933.59
2022-12-31T21:49:35.566Z,99929.56
2022-12-31T21:55:17.214Z,99927.00
2022-12-31T22:00:56.677Z,99943.78
2022-12-31T22:06:22.735Z,99919.84
2022-12-31T22:11:43.522Z,99912.84
2022-12-31T22:17:04.199Z,99918.75
2022-12-31T22:22:24.916Z,99917.91
2022-12-31T22:28:11.639Z,99913.50
2022-12-31T22:33:27.361Z,99909.25
2022-12-31T22:38:48.836Z,99927.09
2022-12-31T22:44:09.381Z,99912.53
2022-12-31T22:49:29.891Z,99917.66
2022-12-31T22:54:50.351Z,99921.28
2022-12-31T23:00:13.578Z,99933.28
2022-12-31T23:05:34.843Z,99935.06
2022-12-31T23:11:01.075Z,99927.94
2022-12-31T23:16:41.539Z,99926.00
2022-12-31T23:22:20.704Z,99905.53
2022-12-31T23:27:41.103Z,99934.56
2022-12-31T23:33:01.814Z,99905.41
2022-12-31T23:38:22.465Z,99913.81
2022-12-31T23:43:44.417Z,99913.66
2022-12-31T23:49:04.839Z,99923.81
2022-12-31T23:54:25.328Z,99934.69
2022-12-31T23:59:45.886Z,99924.34
